sensor_id;sensor_type;location;lat;lon;timestamp;P1;durP1;ratioP1;P2;durP2;ratioP2
13733;SDS011;43298;52.560;13.508;2022-11-15T00:00:53;14.80;;;13.57;;
13733;SDS011;43298;52.560;13.508;2022-11-15T00:03:23;14.40;;;13.50;;
13733;SDS011;43298;52.560;13.508;2022-11-15T00:05:52;13.13;;;12.23;;
13733;SDS011;43298;52.560;13.508;2022-11-15T00:08:18;12.65;;;11.75;;
13733;SDS011;43298;52.560;13.508;2022-11-15T00:10:53;13.98;;;12.85;;
13733;SDS011;43298;52.560;13.508;2022-11-15T00:13:24;14.95;;;13.52;;
13733;SDS011;43298;52.560;13.508;2022-11-15T00:15:50;14.57;;;13.25;;
13733;SDS011;43298;52.560;13.508;2022-11-15T00:18:16;15.05;;;13.52;;
13733;SDS011;43298;52.560;13.508;2022-11-15T00:20:42;13.57;;;12.68;;
13733;SDS011;43298;52.560;13.508;2022-11-15T00:23:09;14.45;;;13.45;;
13733;SDS011;43298;52.560;13.508;2022-11-15T00:25:35;15.85;;;14.65;;
13733;SDS011;43298;52.560;13.508;2022-11-15T00:28:01;13.15;;;12.32;;
13733;SDS011;43298;52.560;13.508;2022-11-15T00:30:27;14.48;;;13.50;;
13733;SDS011;43298;52.560;13.508;2022-11-15T00:32:53;13.13;;;11.95;;
13733;SDS011;43298;52.560;13.508;2022-11-15T00:35:20;15.70;;;14.40;;
13733;SDS011;43298;52.560;13.508;2022-11-15T00:37:46;15.07;;;13.63;;
13733;SDS011;43298;52.560;13.508;2022-11-15T00:40:13;13.93;;;12.88;;
13733;SDS011;43298;52.560;13.508;2022-11-15T00:42:40;13.15;;;12.45;;
13733;SDS011;43298;52.560;13.508;2022-11-15T00:45:06;14.98;;;13.55;;
13733;SDS011;43298;52.560;13.508;2022-11-15T00:47:34;15.25;;;14.02;;
13733;SDS011;43298;52.560;13.508;2022-11-15T00:49:59;14.70;;;13.32;;
13733;SDS011;43298;52.560;13.508;2022-11-15T00:52:25;15.38;;;14.18;;
13733;SDS011;43298;52.560;13.508;2022-11-15T00:54:51;15.20;;;14.00;;
13733;SDS011;43298;52.560;13.508;2022-11-15T00:57:17;14.82;;;13.32;;
13733;SDS011;43298;52.560;13.508;2022-11-15T00:59:43;13.80;;;12.27;;
13733;SDS011;43298;52.560;13.508;2022-11-15T01:02:08;15.80;;;14.57;;
13733;SDS011;43298;52.560;13.508;2022-11-15T01:04:34;15.60;;;14.13;;
13733;SDS011;43298;52.560;13.508;2022-11-15T01:07:00;15.18;;;14.15;;
13733;SDS011;43298;52.560;13.508;2022-11-15T01:09:26;14.80;;;13.80;;
13733;SDS011;43298;52.560;13.508;2022-11-15T01:11:51;14.32;;;13.25;;
13733;SDS011;43298;52.560;13.508;2022-11-15T01:14:17;14.80;;;13.52;;
13733;SDS011;43298;52.560;13.508;2022-11-15T01:16:43;14.90;;;13.63;;
13733;SDS011;43298;52.560;13.508;2022-11-15T01:19:09;13.13;;;12.27;;
13733;SDS011;43298;52.560;13.508;2022-11-15T01:21:35;14.48;;;13.48;;
13733;SDS011;43298;52.560;13.508;2022-11-15T01:24:00;13.30;;;12.25;;
13733;SDS011;43298;52.560;13.508;2022-11-15T01:26:26;12.98;;;12.13;;
13733;SDS011;43298;52.560;13.508;2022-11-15T01:28:52;16.40;;;15.15;;
13733;SDS011;43298;52.560;13.508;2022-11-15T01:31:19;12.15;;;11.38;;
13733;SDS011;43298;52.560;13.508;2022-11-15T01:33:46;16.08;;;13.45;;
13733;SDS011;43298;52.560;13.508;2022-11-15T01:36:14;13.65;;;12.65;;
13733;SDS011;43298;52.560;13.508;2022-11-15T01:38:43;13.68;;;12.82;;
13733;SDS011;43298;52.560;13.508;2022-11-15T01:41:28;13.15;;;12.35;;
13733;SDS011;43298;52.560;13.508;2022-11-15T01:44:28;14.85;;;13.73;;
13733;SDS011;43298;52.560;13.508;2022-11-15T01:49:51;14.88;;;13.85;;
13733;SDS011;43298;52.560;13.508;2022-11-15T01:52:40;14.32;;;13.45;;
13733;SDS011;43298;52.560;13.508;2022-11-15T01:55:40;13.68;;;12.70;;
13733;SDS011;43298;52.560;13.508;2022-11-15T01:58:00;14.07;;;13.13;;
13733;SDS011;43298;52.560;13.508;2022-11-15T02:00:29;20.50;;;13.55;;
13733;SDS011;43298;52.560;13.508;2022-11-15T02:02:55;16.00;;;14.70;;
13733;SDS011;43298;52.560;13.508;2022-11-15T02:05:21;14.05;;;13.05;;
13733;SDS011;43298;52.560;13.508;2022-11-15T02:07:47;16.35;;;13.95;;
13733;SDS011;43298;52.560;13.508;2022-11-15T02:10:17;13.10;;;12.20;;
13733;SDS011;43298;52.560;13.508;2022-11-15T02:12:46;16.58;;;15.13;;
13733;SDS011;43298;52.560;13.508;2022-11-15T02:15:13;15.38;;;14.05;;
13733;SDS011;43298;52.560;13.508;2022-11-15T02:32:48;16.48;;;15.27;;
13733;SDS011;43298;52.560;13.508;2022-11-15T02:41:15;17.23;;;15.82;;
13733;SDS011;43298;52.560;13.508;2022-11-15T02:44:05;16.30;;;14.75;;
13733;SDS011;43298;52.560;13.508;2022-11-15T02:46:46;13.65;;;12.65;;
13733;SDS011;43298;52.560;13.508;2022-11-15T02:49:36;14.27;;;13.38;;
13733;SDS011;43298;52.560;13.508;2022-11-15T02:52:05;13.60;;;12.80;;
13733;SDS011;43298;52.560;13.508;2022-11-15T02:54:31;15.95;;;14.68;;
13733;SDS011;43298;52.560;13.508;2022-11-15T02:57:00;14.13;;;13.32;;
13733;SDS011;43298;52.560;13.508;2022-11-15T03:00:10;14.73;;;13.43;;
13733;SDS011;43298;52.560;13.508;2022-11-15T03:08:54;15.52;;;14.13;;
13733;SDS011;43298;52.560;13.508;2022-11-15T03:11:41;14.82;;;13.82;;
13733;SDS011;43298;52.560;13.508;2022-11-15T03:16:57;13.73;;;12.93;;
13733;SDS011;43298;52.560;13.508;2022-11-15T03:22:22;14.57;;;13.50;;
13733;SDS011;43298;52.560;13.508;2022-11-15T03:24:53;14.60;;;13.55;;
13733;SDS011;43298;52.560;13.508;2022-11-15T03:27:25;15.30;;;13.80;;
13733;SDS011;43298;52.560;13.508;2022-11-15T03:29:59;13.80;;;12.88;;
13733;SDS011;43298;52.560;13.508;2022-11-15T03:32:30;15.05;;;14.02;;
13733;SDS011;43298;52.560;13.508;2022-11-15T03:35:05;13.73;;;12.93;;
13733;SDS011;43298;52.560;13.508;2022-11-15T03:38:08;13.70;;;12.60;;
13733;SDS011;43298;52.560;13.508;2022-11-15T03:40:42;15.43;;;14.13;;
13733;SDS011;43298;52.560;13.508;2022-11-15T03:43:41;14.25;;;13.35;;
13733;SDS011;43298;52.560;13.508;2022-11-15T03:46:40;14.77;;;13.68;;
13733;SDS011;43298;52.560;13.508;2022-11-15T03:49:38;14.27;;;13.40;;
13733;SDS011;43298;52.560;13.508;2022-11-15T03:52:09;14.77;;;13.88;;
13733;SDS011;43298;52.560;13.508;2022-11-15T03:54:36;15.65;;;14.38;;
13733;SDS011;43298;52.560;13.508;2022-11-15T03:57:12;15.93;;;14.55;;
13733;SDS011;43298;52.560;13.508;2022-11-15T03:59:38;15.00;;;14.10;;
13733;SDS011;43298;52.560;13.508;2022-11-15T04:02:04;15.63;;;14.32;;
13733;SDS011;43298;52.560;13.508;2022-11-15T04:04:30;14.52;;;13.52;;
13733;SDS011;43298;52.560;13.508;2022-11-15T04:06:55;14.85;;;13.85;;
13733;SDS011;43298;52.560;13.508;2022-11-15T04:09:21;14.73;;;13.48;;
13733;SDS011;43298;52.560;13.508;2022-11-15T04:11:47;16.08;;;14.93;;
13733;SDS011;43298;52.560;13.508;2022-11-15T04:14:13;16.20;;;15.15;;
13733;SDS011;43298;52.560;13.508;2022-11-15T04:16:38;15.95;;;14.80;;
13733;SDS011;43298;52.560;13.508;2022-11-15T04:19:04;15.98;;;14.63;;
13733;SDS011;43298;52.560;13.508;2022-11-15T04:21:48;14.98;;;14.05;;
13733;SDS011;43298;52.560;13.508;2022-11-15T04:24:33;14.95;;;13.77;;
13733;SDS011;43298;52.560;13.508;2022-11-15T04:26:59;13.77;;;12.90;;
13733;SDS011;43298;52.560;13.508;2022-11-15T04:29:25;14.32;;;13.27;;
13733;SDS011;43298;52.560;13.508;2022-11-15T04:32:00;14.60;;;13.45;;
13733;SDS011;43298;52.560;13.508;2022-11-15T04:34:30;15.25;;;14.25;;
13733;SDS011;43298;52.560;13.508;2022-11-15T04:36:57;14.05;;;13.25;;
13733;SDS011;43298;52.560;13.508;2022-11-15T04:39:41;15.35;;;14.38;;
13733;SDS011;43298;52.560;13.508;2022-11-15T04:42:08;12.98;;;12.18;;
13733;SDS011;43298;52.560;13.508;2022-11-15T04:44:34;14.38;;;13.48;;
13733;SDS011;43298;52.560;13.508;2022-11-15T04:47:01;16.08;;;14.85;;
13733;SDS011;43298;52.560;13.508;2022-11-15T04:49:27;14.57;;;13.65;;
13733;SDS011;43298;52.560;13.508;2022-11-15T04:51:53;15.52;;;14.63;;
13733;SDS011;43298;52.560;13.508;2022-11-15T04:54:18;15.30;;;14.10;;
13733;SDS011;43298;52.560;13.508;2022-11-15T04:56:44;14.40;;;13.55;;
13733;SDS011;43298;52.560;13.508;2022-11-15T04:59:10;15.23;;;14.23;;
13733;SDS011;43298;52.560;13.508;2022-11-15T05:01:36;14.38;;;13.57;;
13733;SDS011;43298;52.560;13.508;2022-11-15T05:04:02;14.38;;;13.25;;
13733;SDS011;43298;52.560;13.508;2022-11-15T05:06:49;14.75;;;13.70;;
13733;SDS011;43298;52.560;13.508;2022-11-15T05:09:19;14.82;;;13.73;;
13733;SDS011;43298;52.560;13.508;2022-11-15T05:11:46;15.98;;;14.38;;
13733;SDS011;43298;52.560;13.508;2022-11-15T05:14:12;15.02;;;13.70;;
13733;SDS011;43298;52.560;13.508;2022-11-15T05:16:38;17.05;;;15.68;;
13733;SDS011;43298;52.560;13.508;2022-11-15T05:19:05;15.43;;;14.18;;
13733;SDS011;43298;52.560;13.508;2022-11-15T05:21:31;14.05;;;13.02;;
13733;SDS011;43298;52.560;13.508;2022-11-15T05:23:58;15.50;;;14.05;;
13733;SDS011;43298;52.560;13.508;2022-11-15T05:26:24;16.95;;;15.55;;
13733;SDS011;43298;52.560;13.508;2022-11-15T05:28:54;14.50;;;13.20;;
13733;SDS011;43298;52.560;13.508;2022-11-15T05:31:21;14.50;;;13.57;;
13733;SDS011;43298;52.560;13.508;2022-11-15T05:33:49;13.48;;;12.52;;
13733;SDS011;43298;52.560;13.508;2022-11-15T05:39:02;13.68;;;12.80;;
13733;SDS011;43298;52.560;13.508;2022-11-15T05:41:39;14.30;;;13.20;;
13733;SDS011;43298;52.560;13.508;2022-11-15T05:44:20;12.95;;;12.05;;
13733;SDS011;43298;52.560;13.508;2022-11-15T05:46:48;13.15;;;12.35;;
13733;SDS011;43298;52.560;13.508;2022-11-15T05:49:21;12.68;;;11.88;;
13733;SDS011;43298;52.560;13.508;2022-11-15T05:51:54;14.15;;;13.27;;
13733;SDS011;43298;52.560;13.508;2022-11-15T05:54:22;13.55;;;12.57;;
13733;SDS011;43298;52.560;13.508;2022-11-15T05:56:49;14.73;;;13.73;;
13733;SDS011;43298;52.560;13.508;2022-11-15T05:59:16;15.10;;;14.13;;
13733;SDS011;43298;52.560;13.508;2022-11-15T06:01:43;13.93;;;12.98;;
13733;SDS011;43298;52.560;13.508;2022-11-15T06:04:09;16.95;;;15.85;;
13733;SDS011;43298;52.560;13.508;2022-11-15T06:06:34;17.98;;;16.50;;
13733;SDS011;43298;52.560;13.508;2022-11-15T06:09:00;18.63;;;16.70;;
13733;SDS011;43298;52.560;13.508;2022-11-15T06:11:26;18.50;;;16.88;;
13733;SDS011;43298;52.560;13.508;2022-11-15T06:13:52;15.75;;;14.63;;
13733;SDS011;43298;52.560;13.508;2022-11-15T06:16:18;16.60;;;15.27;;
13733;SDS011;43298;52.560;13.508;2022-11-15T06:18:44;15.88;;;14.77;;
13733;SDS011;43298;52.560;13.508;2022-11-15T06:21:09;17.33;;;16.00;;
13733;SDS011;43298;52.560;13.508;2022-11-15T06:23:35;15.80;;;14.50;;
13733;SDS011;43298;52.560;13.508;2022-11-15T06:26:01;15.35;;;14.43;;
13733;SDS011;43298;52.560;13.508;2022-11-15T06:28:28;15.85;;;14.82;;
13733;SDS011;43298;52.560;13.508;2022-11-15T06:30:56;15.10;;;14.20;;
13733;SDS011;43298;52.560;13.508;2022-11-15T06:33:31;15.73;;;13.88;;
13733;SDS011;43298;52.560;13.508;2022-11-15T06:36:00;17.10;;;15.65;;
13733;SDS011;43298;52.560;13.508;2022-11-15T06:38:30;14.48;;;13.40;;
13733;SDS011;43298;52.560;13.508;2022-11-15T06:41:00;14.35;;;13.00;;
13733;SDS011;43298;52.560;13.508;2022-11-15T06:43:31;15.15;;;14.25;;
13733;SDS011;43298;52.560;13.508;2022-11-15T06:45:59;17.75;;;15.88;;
13733;SDS011;43298;52.560;13.508;2022-11-15T06:48:26;15.45;;;14.00;;
13733;SDS011;43298;52.560;13.508;2022-11-15T06:50:53;44.00;;;14.35;;
13733;SDS011;43298;52.560;13.508;2022-11-15T06:53:21;15.98;;;13.82;;
13733;SDS011;43298;52.560;13.508;2022-11-15T06:55:48;14.38;;;13.40;;
13733;SDS011;43298;52.560;13.508;2022-11-15T06:58:14;13.73;;;12.73;;
13733;SDS011;43298;52.560;13.508;2022-11-15T07:00:40;15.27;;;13.73;;
13733;SDS011;43298;52.560;13.508;2022-11-15T07:03:07;15.38;;;14.20;;
13733;SDS011;43298;52.560;13.508;2022-11-15T07:05:33;13.85;;;12.95;;
13733;SDS011;43298;52.560;13.508;2022-11-15T07:07:59;15.35;;;14.27;;
13733;SDS011;43298;52.560;13.508;2022-11-15T07:10:26;14.57;;;13.52;;
13733;SDS011;43298;52.560;13.508;2022-11-15T07:12:53;14.20;;;13.13;;
13733;SDS011;43298;52.560;13.508;2022-11-15T07:15:21;23.65;;;13.30;;
13733;SDS011;43298;52.560;13.508;2022-11-15T07:17:50;13.95;;;12.95;;
13733;SDS011;43298;52.560;13.508;2022-11-15T07:20:16;13.13;;;12.32;;
13733;SDS011;43298;52.560;13.508;2022-11-15T07:22:43;18.08;;;13.23;;
13733;SDS011;43298;52.560;13.508;2022-11-15T07:25:12;14.52;;;13.60;;
13733;SDS011;43298;52.560;13.508;2022-11-15T07:27:38;12.65;;;11.88;;
13733;SDS011;43298;52.560;13.508;2022-11-15T07:30:04;12.35;;;11.63;;
13733;SDS011;43298;52.560;13.508;2022-11-15T07:32:30;13.43;;;12.25;;
13733;SDS011;43298;52.560;13.508;2022-11-15T07:34:56;14.73;;;13.60;;
13733;SDS011;43298;52.560;13.508;2022-11-15T07:37:22;12.98;;;12.10;;
13733;SDS011;43298;52.560;13.508;2022-11-15T07:39:48;15.40;;;14.30;;
13733;SDS011;43298;52.560;13.508;2022-11-15T07:42:14;14.75;;;13.70;;
13733;SDS011;43298;52.560;13.508;2022-11-15T07:44:58;15.27;;;13.93;;
13733;SDS011;43298;52.560;13.508;2022-11-15T07:47:24;16.30;;;14.88;;
13733;SDS011;43298;52.560;13.508;2022-11-15T07:49:49;14.07;;;12.88;;
13733;SDS011;43298;52.560;13.508;2022-11-15T07:52:15;13.65;;;12.60;;
13733;SDS011;43298;52.560;13.508;2022-11-15T07:54:41;13.70;;;12.75;;
13733;SDS011;43298;52.560;13.508;2022-11-15T07:57:07;12.93;;;11.70;;
13733;SDS011;43298;52.560;13.508;2022-11-15T07:59:34;14.73;;;13.25;;
13733;SDS011;43298;52.560;13.508;2022-11-15T08:02:00;15.07;;;13.98;;
13733;SDS011;43298;52.560;13.508;2022-11-15T08:04:27;13.88;;;12.93;;
13733;SDS011;43298;52.560;13.508;2022-11-15T08:06:53;15.25;;;14.05;;
13733;SDS011;43298;52.560;13.508;2022-11-15T08:09:18;14.50;;;13.52;;
13733;SDS011;43298;52.560;13.508;2022-11-15T08:11:44;14.85;;;13.40;;
13733;SDS011;43298;52.560;13.508;2022-11-15T08:14:10;15.05;;;13.95;;
13733;SDS011;43298;52.560;13.508;2022-11-15T08:16:35;17.02;;;15.68;;
13733;SDS011;43298;52.560;13.508;2022-11-15T08:19:01;14.85;;;13.57;;
13733;SDS011;43298;52.560;13.508;2022-11-15T08:21:27;14.90;;;13.68;;
13733;SDS011;43298;52.560;13.508;2022-11-15T08:23:53;14.52;;;13.38;;
13733;SDS011;43298;52.560;13.508;2022-11-15T08:26:19;15.82;;;14.70;;
13733;SDS011;43298;52.560;13.508;2022-11-15T08:28:44;18.35;;;16.83;;
13733;SDS011;43298;52.560;13.508;2022-11-15T08:31:17;13.77;;;12.77;;
13733;SDS011;43298;52.560;13.508;2022-11-15T08:33:44;13.85;;;12.80;;
13733;SDS011;43298;52.560;13.508;2022-11-15T08:36:13;15.52;;;13.80;;
13733;SDS011;43298;52.560;13.508;2022-11-15T08:38:40;14.88;;;13.68;;
13733;SDS011;43298;52.560;13.508;2022-11-15T08:41:09;15.10;;;14.13;;
13733;SDS011;43298;52.560;13.508;2022-11-15T08:43:49;13.30;;;12.40;;
13733;SDS011;43298;52.560;13.508;2022-11-15T08:46:15;15.77;;;14.32;;
13733;SDS011;43298;52.560;13.508;2022-11-15T08:48:41;14.25;;;13.15;;
13733;SDS011;43298;52.560;13.508;2022-11-15T08:51:07;14.98;;;13.52;;
13733;SDS011;43298;52.560;13.508;2022-11-15T08:53:33;13.23;;;12.32;;
13733;SDS011;43298;52.560;13.508;2022-11-15T08:55:59;12.68;;;11.55;;
13733;SDS011;43298;52.560;13.508;2022-11-15T08:58:25;13.25;;;12.15;;
13733;SDS011;43298;52.560;13.508;2022-11-15T09:00:51;13.48;;;12.57;;
13733;SDS011;43298;52.560;13.508;2022-11-15T09:03:17;14.13;;;13.20;;
13733;SDS011;43298;52.560;13.508;2022-11-15T09:05:43;14.10;;;13.05;;
13733;SDS011;43298;52.560;13.508;2022-11-15T09:08:09;15.32;;;13.98;;
13733;SDS011;43298;52.560;13.508;2022-11-15T09:10:36;15.40;;;14.32;;
13733;SDS011;43298;52.560;13.508;2022-11-15T09:13:02;34.90;;;16.80;;
13733;SDS011;43298;52.560;13.508;2022-11-15T09:15:27;17.48;;;16.17;;
13733;SDS011;43298;52.560;13.508;2022-11-15T09:17:53;14.50;;;13.60;;
13733;SDS011;43298;52.560;13.508;2022-11-15T09:20:22;12.43;;;11.68;;
13733;SDS011;43298;52.560;13.508;2022-11-15T09:22:48;12.68;;;11.63;;
13733;SDS011;43298;52.560;13.508;2022-11-15T09:25:14;14.05;;;12.85;;
13733;SDS011;43298;52.560;13.508;2022-11-15T09:27:39;11.73;;;11.02;;
13733;SDS011;43298;52.560;13.508;2022-11-15T09:30:06;12.45;;;11.65;;
13733;SDS011;43298;52.560;13.508;2022-11-15T09:32:32;12.45;;;11.52;;
13733;SDS011;43298;52.560;13.508;2022-11-15T09:34:58;14.20;;;13.30;;
13733;SDS011;43298;52.560;13.508;2022-11-15T09:37:23;15.75;;;14.35;;
13733;SDS011;43298;52.560;13.508;2022-11-15T09:39:49;15.00;;;13.98;;
13733;SDS011;43298;52.560;13.508;2022-11-15T09:53:42;12.13;;;11.43;;
13733;SDS011;43298;52.560;13.508;2022-11-15T09:56:16;12.73;;;11.82;;
13733;SDS011;43298;52.560;13.508;2022-11-15T10:02:13;13.35;;;12.18;;
13733;SDS011;43298;52.560;13.508;2022-11-15T10:04:58;11.18;;;10.43;;
13733;SDS011;43298;52.560;13.508;2022-11-15T10:10:48;12.27;;;11.35;;
13733;SDS011;43298;52.560;13.508;2022-11-15T10:13:25;15.60;;;11.05;;
13733;SDS011;43298;52.560;13.508;2022-11-15T10:15:57;11.95;;;11.05;;
13733;SDS011;43298;52.560;13.508;2022-11-15T10:18:55;11.25;;;10.23;;
13733;SDS011;43298;52.560;13.508;2022-11-15T10:21:40;11.10;;;10.40;;
13733;SDS011;43298;52.560;13.508;2022-11-15T10:24:17;12.20;;;11.27;;
13733;SDS011;43298;52.560;13.508;2022-11-15T10:26:50;13.93;;;12.95;;
13733;SDS011;43298;52.560;13.508;2022-11-15T10:29:19;13.52;;;12.55;;
13733;SDS011;43298;52.560;13.508;2022-11-15T10:31:49;13.30;;;12.27;;
13733;SDS011;43298;52.560;13.508;2022-11-15T10:34:19;10.95;;;10.25;;
13733;SDS011;43298;52.560;13.508;2022-11-15T10:36:55;12.40;;;11.45;;
13733;SDS011;43298;52.560;13.508;2022-11-15T10:39:23;11.95;;;11.15;;
13733;SDS011;43298;52.560;13.508;2022-11-15T10:41:50;13.27;;;11.93;;
13733;SDS011;43298;52.560;13.508;2022-11-15T10:46:42;11.90;;;11.10;;
13733;SDS011;43298;52.560;13.508;2022-11-15T10:49:20;11.68;;;10.88;;
13733;SDS011;43298;52.560;13.508;2022-11-15T10:54:44;11.43;;;10.63;;
13733;SDS011;43298;52.560;13.508;2022-11-15T10:57:18;14.10;;;12.93;;
13733;SDS011;43298;52.560;13.508;2022-11-15T10:59:54;11.80;;;11.00;;
13733;SDS011;43298;52.560;13.508;2022-11-15T11:08:04;11.80;;;11.00;;
13733;SDS011;43298;52.560;13.508;2022-11-15T11:10:36;9.85;;;9.15;;
13733;SDS011;43298;52.560;13.508;2022-11-15T11:13:22;11.18;;;10.38;;
13733;SDS011;43298;52.560;13.508;2022-11-15T11:19:25;10.32;;;9.73;;
13733;SDS011;43298;52.560;13.508;2022-11-15T11:25:19;11.68;;;10.73;;
13733;SDS011;43298;52.560;13.508;2022-11-15T11:30:56;12.93;;;11.75;;
13733;SDS011;43298;52.560;13.508;2022-11-15T11:37:13;12.35;;;11.50;;
13733;SDS011;43298;52.560;13.508;2022-11-15T11:48:14;10.15;;;9.35;;
13733;SDS011;43298;52.560;13.508;2022-11-15T11:51:00;11.77;;;10.90;;
13733;SDS011;43298;52.560;13.508;2022-11-15T11:53:43;9.45;;;8.75;;
13733;SDS011;43298;52.560;13.508;2022-11-15T11:59:00;11.18;;;10.57;;
13733;SDS011;43298;52.560;13.508;2022-11-15T12:02:02;11.20;;;10.50;;
13733;SDS011;43298;52.560;13.508;2022-11-15T12:08:03;10.77;;;10.20;;
13733;SDS011;43298;52.560;13.508;2022-11-15T12:11:13;8.98;;;8.38;;
13733;SDS011;43298;52.560;13.508;2022-11-15T12:13:42;9.15;;;8.55;;
13733;SDS011;43298;52.560;13.508;2022-11-15T12:16:12;11.50;;;10.70;;
13733;SDS011;43298;52.560;13.508;2022-11-15T12:18:59;10.10;;;9.43;;
13733;SDS011;43298;52.560;13.508;2022-11-15T12:21:44;8.95;;;8.35;;
13733;SDS011;43298;52.560;13.508;2022-11-15T12:24:29;10.23;;;9.45;;
13733;SDS011;43298;52.560;13.508;2022-11-15T12:29:56;12.27;;;11.60;;
13733;SDS011;43298;52.560;13.508;2022-11-15T12:32:37;13.57;;;11.98;;
13733;SDS011;43298;52.560;13.508;2022-11-15T12:35:20;10.25;;;9.60;;
13733;SDS011;43298;52.560;13.508;2022-11-15T12:38:51;10.40;;;9.85;;
13733;SDS011;43298;52.560;13.508;2022-11-15T12:41:38;10.90;;;10.10;;
13733;SDS011;43298;52.560;13.508;2022-11-15T12:44:10;11.00;;;10.40;;
13733;SDS011;43298;52.560;13.508;2022-11-15T13:05:56;13.15;;;12.02;;
13733;SDS011;43298;52.560;13.508;2022-11-15T13:07:58;11.35;;;10.57;;
13733;SDS011;43298;52.560;13.508;2022-11-15T13:10:32;10.02;;;9.43;;
13733;SDS011;43298;52.560;13.508;2022-11-15T13:13:03;11.35;;;10.57;;
13733;SDS011;43298;52.560;13.508;2022-11-15T13:20:54;14.35;;;10.70;;
13733;SDS011;43298;52.560;13.508;2022-11-15T13:23:20;10.45;;;9.93;;
13733;SDS011;43298;52.560;13.508;2022-11-15T13:33:59;10.95;;;10.15;;
13733;SDS011;43298;52.560;13.508;2022-11-15T13:36:45;10.73;;;9.85;;
13733;SDS011;43298;52.560;13.508;2022-11-15T13:39:12;10.85;;;10.05;;
13733;SDS011;43298;52.560;13.508;2022-11-15T13:41:53;10.80;;;10.20;;
13733;SDS011;43298;52.560;13.508;2022-11-15T13:44:29;10.10;;;9.60;;
13733;SDS011;43298;52.560;13.508;2022-11-15T13:47:04;11.88;;;11.23;;
13733;SDS011;43298;52.560;13.508;2022-11-15T13:49:39;11.40;;;10.77;;
13733;SDS011;43298;52.560;13.508;2022-11-15T13:52:06;12.18;;;11.35;;
13733;SDS011;43298;52.560;13.508;2022-11-15T13:57:14;10.45;;;9.73;;
13733;SDS011;43298;52.560;13.508;2022-11-15T13:59:56;12.43;;;11.65;;
13733;SDS011;43298;52.560;13.508;2022-11-15T14:02:30;11.40;;;10.57;;
13733;SDS011;43298;52.560;13.508;2022-11-15T14:05:02;11.10;;;10.30;;
13733;SDS011;43298;52.560;13.508;2022-11-15T14:07:40;11.80;;;11.10;;
13733;SDS011;43298;52.560;13.508;2022-11-15T14:10:28;10.63;;;9.95;;
13733;SDS011;43298;52.560;13.508;2022-11-15T14:13:02;12.40;;;11.27;;
13733;SDS011;43298;52.560;13.508;2022-11-15T14:15:36;10.60;;;10.10;;
13733;SDS011;43298;52.560;13.508;2022-11-15T14:18:04;9.88;;;9.18;;
13733;SDS011;43298;52.560;13.508;2022-11-15T14:20:35;9.93;;;9.30;;
13733;SDS011;43298;52.560;13.508;2022-11-15T14:23:24;11.65;;;10.85;;
13733;SDS011;43298;52.560;13.508;2022-11-15T14:25:52;11.77;;;11.05;;
13733;SDS011;43298;52.560;13.508;2022-11-15T14:30:49;11.10;;;10.40;;
13733;SDS011;43298;52.560;13.508;2022-11-15T14:33:28;13.20;;;12.27;;
13733;SDS011;43298;52.560;13.508;2022-11-15T14:35:58;11.55;;;10.85;;
13733;SDS011;43298;52.560;13.508;2022-11-15T14:38:28;15.18;;;12.13;;
13733;SDS011;43298;52.560;13.508;2022-11-15T14:40:54;12.32;;;11.43;;
13733;SDS011;43298;52.560;13.508;2022-11-15T14:43:20;10.30;;;9.77;;
13733;SDS011;43298;52.560;13.508;2022-11-15T14:45:47;12.60;;;11.80;;
13733;SDS011;43298;52.560;13.508;2022-11-15T14:48:13;11.38;;;10.82;;
13733;SDS011;43298;52.560;13.508;2022-11-15T14:50:39;13.43;;;12.35;;
13733;SDS011;43298;52.560;13.508;2022-11-15T14:53:05;13.70;;;12.93;;
13733;SDS011;43298;52.560;13.508;2022-11-15T14:55:32;15.10;;;14.35;;
13733;SDS011;43298;52.560;13.508;2022-11-15T14:58:01;13.93;;;12.95;;
13733;SDS011;43298;52.560;13.508;2022-11-15T15:00:29;14.02;;;13.05;;
13733;SDS011;43298;52.560;13.508;2022-11-15T15:02:56;16.42;;;15.32;;
13733;SDS011;43298;52.560;13.508;2022-11-15T15:05:29;21.17;;;19.88;;
13733;SDS011;43298;52.560;13.508;2022-11-15T15:07:57;17.83;;;16.83;;
13733;SDS011;43298;52.560;13.508;2022-11-15T15:10:23;19.05;;;17.70;;
13733;SDS011;43298;52.560;13.508;2022-11-15T15:12:52;14.13;;;13.27;;
13733;SDS011;43298;52.560;13.508;2022-11-15T15:15:21;11.82;;;11.02;;
13733;SDS011;43298;52.560;13.508;2022-11-15T15:17:51;11.45;;;10.80;;
13733;SDS011;43298;52.560;13.508;2022-11-15T15:20:17;10.52;;;10.00;;
13733;SDS011;43298;52.560;13.508;2022-11-15T15:22:43;12.95;;;12.07;;
13733;SDS011;43298;52.560;13.508;2022-11-15T15:27:53;11.35;;;10.68;;
13733;SDS011;43298;52.560;13.508;2022-11-15T15:30:20;9.88;;;9.27;;
13733;SDS011;43298;52.560;13.508;2022-11-15T15:32:51;11.32;;;10.43;;
13733;SDS011;43298;52.560;13.508;2022-11-15T15:35:17;10.25;;;9.32;;
13733;SDS011;43298;52.560;13.508;2022-11-15T15:37:44;12.38;;;11.57;;
13733;SDS011;43298;52.560;13.508;2022-11-15T15:40:21;10.98;;;10.27;;
13733;SDS011;43298;52.560;13.508;2022-11-15T15:42:49;10.32;;;9.50;;
13733;SDS011;43298;52.560;13.508;2022-11-15T15:45:15;10.35;;;9.65;;
13733;SDS011;43298;52.560;13.508;2022-11-15T15:47:43;12.55;;;10.57;;
13733;SDS011;43298;52.560;13.508;2022-11-15T15:52:49;11.38;;;10.68;;
13733;SDS011;43298;52.560;13.508;2022-11-15T15:55:16;10.50;;;9.80;;
13733;SDS011;43298;52.560;13.508;2022-11-15T15:57:42;11.82;;;11.02;;
13733;SDS011;43298;52.560;13.508;2022-11-15T16:00:08;11.05;;;10.25;;
13733;SDS011;43298;52.560;13.508;2022-11-15T16:02:35;9.98;;;9.38;;
13733;SDS011;43298;52.560;13.508;2022-11-15T16:05:01;12.38;;;11.23;;
13733;SDS011;43298;52.560;13.508;2022-11-15T16:07:27;11.55;;;10.63;;
13733;SDS011;43298;52.560;13.508;2022-11-15T16:09:54;12.05;;;11.18;;
13733;SDS011;43298;52.560;13.508;2022-11-15T16:12:32;11.38;;;10.68;;
13733;SDS011;43298;52.560;13.508;2022-11-15T16:14:59;14.00;;;10.63;;
13733;SDS011;43298;52.560;13.508;2022-11-15T16:17:32;13.00;;;11.85;;
13733;SDS011;43298;52.560;13.508;2022-11-15T16:20:02;12.40;;;11.70;;
13733;SDS011;43298;52.560;13.508;2022-11-15T16:22:28;12.85;;;12.00;;
13733;SDS011;43298;52.560;13.508;2022-11-15T16:24:54;14.13;;;12.85;;
13733;SDS011;43298;52.560;13.508;2022-11-15T16:27:21;15.75;;;14.45;;
13733;SDS011;43298;52.560;13.508;2022-11-15T16:29:47;15.15;;;14.13;;
13733;SDS011;43298;52.560;13.508;2022-11-15T16:32:13;14.00;;;13.00;;
13733;SDS011;43298;52.560;13.508;2022-11-15T16:34:40;15.77;;;14.68;;
13733;SDS011;43298;52.560;13.508;2022-11-15T16:37:08;13.68;;;12.63;;
13733;SDS011;43298;52.560;13.508;2022-11-15T16:39:47;15.80;;;14.77;;
13733;SDS011;43298;52.560;13.508;2022-11-15T16:42:13;15.10;;;14.07;;
13733;SDS011;43298;52.560;13.508;2022-11-15T16:44:39;15.85;;;14.60;;
13733;SDS011;43298;52.560;13.508;2022-11-15T16:47:10;15.35;;;14.23;;
13733;SDS011;43298;52.560;13.508;2022-11-15T16:49:44;15.85;;;14.38;;
13733;SDS011;43298;52.560;13.508;2022-11-15T16:52:10;15.35;;;14.18;;